Accueil
METAR-TAF:

METAR-TAF

Aéroports :

Base aérienne de Neubourg

Neubourg, Allemagne

latitude: 48-43N, longitude: 011-13E, altitude: 380 m

Observation

Le bulletin a été fait il y a 1 heure et 15 minutes, à 03:20 UTC
Vent 1 kt de direction variable
Température 11°C
Humidité 87%
Pression 1017 hPa
Visibilité 10 km ou plus
Nuages épars à une hauteur de 2700 ft
Nuages fragmentés à une hauteur de 4500 ft

METAR: ETSN 200320Z VRB01KT 9999 SCT027 BKN045 11/09 Q1017 BLACKBLU

Heure: 06:35 (04:35 UTC)


TAF: absent

Observations et prévisions météorologiques de plus de 4000 aéroports (messages METAR et TAF).

Les stations disponibles sont représentées par des disques jaunes et rouges sur la carte.

Passer la souris dessus pour voir le nom de la station.

Cliquer dessus pour voir les observations et prévisions météorologiques.

Pour changer de carte: cliquez sur les boutons verts avec une croix noire pour zoomer, sur le bouton vert avec un tiret pour effectuer un zoom arrière, ou sur les flèches vertes pour les cartes adjacentes.


METAR-TAF: